createdAt,value
2023-05-10T00:00:03.184Z,793.20
2023-05-10T00:01:02.841Z,728.00
2023-05-10T00:02:02.964Z,790.90
2023-05-10T00:03:02.985Z,644.10
2023-05-10T00:04:02.980Z,720.80
2023-05-10T00:05:02.885Z,676.50
2023-05-10T00:06:02.859Z,869.00
2023-05-10T00:07:02.896Z,791.00
2023-05-10T00:08:02.800Z,642.10
2023-05-10T00:09:02.850Z,891.70
2023-05-10T00:10:02.672Z,736.70
2023-05-10T00:11:02.705Z,838.20
2023-05-10T00:12:02.757Z,963.50
2023-05-10T00:13:02.766Z,696.60
2023-05-10T00:14:02.677Z,848.70
2023-05-10T00:15:02.752Z,824.50
2023-05-10T00:16:02.828Z,870.00
2023-05-10T00:17:02.784Z,802.50
2023-05-10T00:18:02.756Z,766.10
2023-05-10T00:19:02.667Z,769.40
2023-05-10T00:20:02.725Z,846.70
2023-05-10T00:21:02.744Z,720.40
2023-05-10T00:22:02.759Z,811.40
2023-05-10T00:23:02.712Z,795.40
2023-05-10T00:24:02.685Z,813.20
2023-05-10T00:25:02.700Z,792.90
2023-05-10T00:26:02.721Z,765.30
2023-05-10T00:27:02.670Z,777.20
2023-05-10T00:28:02.924Z,732.10
2023-05-10T00:29:02.881Z,714.10
2023-05-10T00:30:02.795Z,643.00
2023-05-10T00:31:02.750Z,706.60
2023-05-10T00:32:02.734Z,638.70
2023-05-10T00:33:02.675Z,638.00
2023-05-10T00:34:02.680Z,776.90
2023-05-10T00:35:02.577Z,759.40
2023-05-10T00:36:02.624Z,687.50
2023-05-10T00:37:02.582Z,620.90
2023-05-10T00:38:02.544Z,770.80
2023-05-10T00:39:02.594Z,672.30
2023-05-10T00:40:02.846Z,690.20
2023-05-10T00:41:02.680Z,741.80
2023-05-10T00:42:02.643Z,712.60
2023-05-10T00:43:02.595Z,679.20
2023-05-10T00:44:02.583Z,654.20
2023-05-10T00:45:02.565Z,665.20
2023-05-10T00:46:02.569Z,590.10
2023-05-10T00:47:02.513Z,640.90
2023-05-10T00:48:02.560Z,728.00
2023-05-10T00:49:02.565Z,690.20
2023-05-10T00:50:02.508Z,656.30
2023-05-10T00:51:02.832Z,630.60
2023-05-10T00:52:02.524Z,739.30
2023-05-10T00:53:02.510Z,668.20
2023-05-10T00:54:02.469Z,755.30
2023-05-10T00:55:02.502Z,617.30
2023-05-10T00:56:02.451Z,668.50
2023-05-10T00:57:02.485Z,701.50
2023-05-10T00:58:02.449Z,754.80
2023-05-10T00:59:02.477Z,662.90
2023-05-10T01:00:02.473Z,673.00
2023-05-10T01:01:02.578Z,628.10
2023-05-10T01:02:02.338Z,707.30
2023-05-10T01:03:02.427Z,816.80
2023-05-10T01:04:03.361Z,678.10
2023-05-10T01:05:02.466Z,743.70
2023-05-10T01:06:02.331Z,694.90
2023-05-10T01:07:02.291Z,616.10
2023-05-10T01:08:02.288Z,631.20
2023-05-10T01:09:02.258Z,754.50
2023-05-10T01:10:02.405Z,678.00
2023-05-10T01:11:02.759Z,658.10
2023-05-10T01:12:02.434Z,637.20
2023-05-10T01:13:02.233Z,633.10
2023-05-10T01:14:02.438Z,709.60
2023-05-10T01:15:03.336Z,675.00
2023-05-10T01:16:02.430Z,672.40
2023-05-10T01:17:02.385Z,755.20
2023-05-10T01:18:02.619Z,744.20
2023-05-10T01:19:02.300Z,822.00
2023-05-10T01:20:02.294Z,552.50
2023-05-10T01:21:02.229Z,802.40
2023-05-10T01:22:02.398Z,585.60
2023-05-10T01:23:02.231Z,769.80
2023-05-10T01:24:02.335Z,855.00
2023-05-10T01:25:02.252Z,800.80
2023-05-10T01:26:02.280Z,829.50
2023-05-10T01:27:02.217Z,832.90
2023-05-10T01:28:02.245Z,768.10
2023-05-10T01:29:02.513Z,707.10
2023-05-10T01:30:21.673Z,566.50
2023-05-10T01:31:04.173Z,723.70
2023-05-10T01:32:02.183Z,756.80
2023-05-10T01:33:02.678Z,538.30
2023-05-10T01:34:02.240Z,722.60
2023-05-10T01:35:02.217Z,601.00
2023-05-10T01:36:13.283Z,816.70
2023-05-10T01:37:02.248Z,779.80
2023-05-10T01:38:02.191Z,724.70
2023-05-10T01:39:02.169Z,850.10
2023-05-10T01:40:02.146Z,603.60
2023-05-10T01:41:02.061Z,528.80
2023-05-10T01:42:02.048Z,567.80
2023-05-10T01:43:02.015Z,496.30
2023-05-10T01:44:02.045Z,494.80
2023-05-10T01:45:02.091Z,471.10
2023-05-10T01:46:02.041Z,565.60
2023-05-10T01:47:02.107Z,591.10
2023-05-10T01:48:02.050Z,788.40
2023-05-10T01:49:02.088Z,584.00
2023-05-10T01:50:02.095Z,611.00
2023-05-10T01:51:02.064Z,640.90
2023-05-10T01:52:02.050Z,494.10
2023-05-10T01:53:02.112Z,559.70
2023-05-10T01:54:02.112Z,495.60
2023-05-10T01:55:02.349Z,551.10
2023-05-10T01:56:02.086Z,540.90
2023-05-10T01:57:02.049Z,477.00
2023-05-10T01:58:02.061Z,483.10
2023-05-10T01:59:02.028Z,500.40
2023-05-10T02:00:02.140Z,477.50
2023-05-10T02:01:02.101Z,572.20
2023-05-10T02:02:02.047Z,577.00
2023-05-10T02:03:02.165Z,528.40
2023-05-10T02:04:20.811Z,565.20
2023-05-10T02:05:02.071Z,841.00
2023-05-10T02:06:02.015Z,532.50
2023-05-10T02:07:02.027Z,513.50
2023-05-10T02:08:01.965Z,758.10
2023-05-10T02:09:01.937Z,619.10
2023-05-10T02:10:01.971Z,794.90
2023-05-10T02:11:02.017Z,977.40
2023-05-10T02:12:02.078Z,752.00
2023-05-10T02:13:01.899Z,468.00
2023-05-10T02:14:02.001Z,497.90
2023-05-10T02:15:01.834Z,535.30
2023-05-10T02:16:01.841Z,504.30
2023-05-10T02:17:02.085Z,488.50
2023-05-10T02:18:02.022Z,649.00
2023-05-10T02:19:01.835Z,493.60
2023-05-10T02:20:01.792Z,548.50
2023-05-10T02:21:01.934Z,553.40
2023-05-10T02:22:01.932Z,458.90
2023-05-10T02:23:01.810Z,515.40
2023-05-10T02:24:01.736Z,595.40
2023-05-10T02:25:01.754Z,583.00
2023-05-10T02:26:01.810Z,480.60
2023-05-10T02:27:01.781Z,583.60
2023-05-10T02:28:01.828Z,822.90
2023-05-10T02:29:01.775Z,707.70
2023-05-10T02:30:01.854Z,652.10
2023-05-10T02:31:01.711Z,589.30
2023-05-10T02:32:02.013Z,426.20
2023-05-10T02:33:01.828Z,436.00
2023-05-10T02:34:01.780Z,439.70
2023-05-10T02:35:01.760Z,391.90
2023-05-10T02:36:01.692Z,459.20
2023-05-10T02:37:01.766Z,425.90
2023-05-10T02:39:02.872Z,449.70
2023-05-10T02:39:02.915Z,453.30
2023-05-10T02:40:01.717Z,414.70
2023-05-10T02:41:01.693Z,419.90
2023-05-10T02:42:01.730Z,463.90
2023-05-10T02:43:01.709Z,428.60
2023-05-10T02:44:01.659Z,503.40
2023-05-10T02:45:01.765Z,456.00
2023-05-10T02:46:01.629Z,470.00
2023-05-10T02:47:01.621Z,597.60
2023-05-10T02:48:01.660Z,575.20
2023-05-10T02:49:01.688Z,523.90
2023-05-10T02:50:01.661Z,537.70
2023-05-10T02:51:01.594Z,527.30
2023-05-10T02:52:01.631Z,473.30
2023-05-10T02:53:01.639Z,390.40
2023-05-10T02:54:01.686Z,399.10
2023-05-10T02:55:01.681Z,361.30
2023-05-10T02:56:01.579Z,369.80
2023-05-10T02:57:01.686Z,365.70
2023-05-10T02:58:01.643Z,374.90
2023-05-10T02:59:01.523Z,316.30
2023-05-10T03:00:01.616Z,366.10
2023-05-10T03:01:01.624Z,350.00
2023-05-10T03:02:01.747Z,314.50
2023-05-10T03:03:02.517Z,324.10
2023-05-10T03:04:01.533Z,348.40
2023-05-10T03:05:01.537Z,608.40
2023-05-10T03:06:01.566Z,531.50
2023-05-10T03:07:01.585Z,537.10
2023-05-10T03:08:01.500Z,391.90
2023-05-10T03:09:01.477Z,346.60
2023-05-10T03:10:01.502Z,332.90
2023-05-10T03:11:01.487Z,447.40
2023-05-10T03:12:01.523Z,341.20
2023-05-10T03:13:01.497Z,446.10
2023-05-10T03:14:01.453Z,404.30
2023-05-10T03:15:01.501Z,307.90
2023-05-10T03:16:01.569Z,338.20
2023-05-10T03:17:01.434Z,359.40
2023-05-10T03:18:01.495Z,404.00
2023-05-10T03:19:01.372Z,408.70
2023-05-10T03:20:01.421Z,408.90
2023-05-10T03:21:01.439Z,438.60
2023-05-10T03:22:01.381Z,424.80
2023-05-10T03:23:01.360Z,415.70
2023-05-10T03:24:20.957Z,450.30
2023-05-10T03:25:01.355Z,421.70
2023-05-10T03:26:01.316Z,370.80
2023-05-10T03:27:01.312Z,388.00
2023-05-10T03:28:01.359Z,383.60
2023-05-10T03:29:01.343Z,330.20
2023-05-10T03:30:01.296Z,319.50
2023-05-10T03:31:01.295Z,356.90
2023-05-10T03:32:01.323Z,402.70
2023-05-10T03:33:01.391Z,376.30
2023-05-10T03:34:01.280Z,470.50
2023-05-10T03:35:01.279Z,682.90
2023-05-10T03:36:01.244Z,495.20
2023-05-10T03:37:01.243Z,684.40
2023-05-10T03:38:01.785Z,727.50
2023-05-10T03:39:01.216Z,776.90
2023-05-10T03:40:01.266Z,554.60
2023-05-10T03:41:01.214Z,451.90
2023-05-10T03:42:01.178Z,527.00
2023-05-10T03:43:01.316Z,608.00
2023-05-10T03:44:01.271Z,408.00
2023-05-10T03:45:01.192Z,499.00
2023-05-10T03:46:01.241Z,523.40
2023-05-10T03:47:01.239Z,626.80
2023-05-10T03:48:01.305Z,626.80
2023-05-10T03:49:01.172Z,498.10
2023-05-10T03:50:01.103Z,548.80
2023-05-10T03:51:01.210Z,469.40
2023-05-10T03:52:01.178Z,466.20
2023-05-10T03:53:01.140Z,457.90
2023-05-10T03:54:01.174Z,503.00
2023-05-10T03:55:01.194Z,514.60
2023-05-10T03:56:01.081Z,463.40
2023-05-10T03:57:01.079Z,457.20
2023-05-10T03:58:01.116Z,410.00
2023-05-10T03:59:01.095Z,396.00
2023-05-10T04:00:01.142Z,249.90
2023-05-10T04:01:01.065Z,256.20
2023-05-10T04:02:01.068Z,254.80
2023-05-10T04:03:26.351Z,236.50
2023-05-10T04:04:02.139Z,259.30
2023-05-10T04:05:01.143Z,296.00
2023-05-10T04:06:01.088Z,367.60
2023-05-10T04:07:01.079Z,391.60
2023-05-10T04:08:01.089Z,404.10
2023-05-10T04:09:01.209Z,380.80
2023-05-10T04:10:01.011Z,284.20
2023-05-10T04:11:01.032Z,279.50
2023-05-10T04:12:00.979Z,245.00
2023-05-10T04:13:01.038Z,271.00
2023-05-10T04:14:01.003Z,278.00
2023-05-10T04:15:00.961Z,271.00
2023-05-10T04:16:01.002Z,246.40
2023-05-10T04:17:01.023Z,273.60
2023-05-10T04:18:00.994Z,264.90
2023-05-10T04:19:00.968Z,296.90
2023-05-10T04:20:00.993Z,293.00
2023-05-10T04:21:00.922Z,301.50
2023-05-10T04:22:00.976Z,290.40
2023-05-10T04:23:00.880Z,344.80
2023-05-10T04:24:00.893Z,314.00
2023-05-10T04:25:00.899Z,382.90
2023-05-10T04:26:00.888Z,341.90
2023-05-10T04:27:00.871Z,300.50
2023-05-10T04:28:00.940Z,369.30
2023-05-10T04:29:00.833Z,422.00
2023-05-10T04:30:00.841Z,457.50
2023-05-10T04:31:00.926Z,513.20
2023-05-10T04:32:00.791Z,489.10
2023-05-10T04:33:00.880Z,338.50
2023-05-10T04:34:00.810Z,336.50
2023-05-10T04:35:00.813Z,310.70
2023-05-10T04:36:00.800Z,524.70
2023-05-10T04:37:00.833Z,334.60
2023-05-10T04:38:00.771Z,447.30
2023-05-10T04:39:01.282Z,331.70
2023-05-10T04:40:00.825Z,340.90
2023-05-10T04:41:00.807Z,314.60
2023-05-10T04:42:00.770Z,358.20
2023-05-10T04:43:00.796Z,380.90
2023-05-10T04:44:01.787Z,327.50
2023-05-10T04:45:00.761Z,438.90
2023-05-10T04:46:00.796Z,350.60
2023-05-10T04:47:00.731Z,360.80
2023-05-10T04:48:00.778Z,343.50
2023-05-10T04:49:00.792Z,330.70
2023-05-10T04:50:00.735Z,340.60
2023-05-10T04:51:00.735Z,304.30
2023-05-10T04:52:00.804Z,319.90
2023-05-10T04:53:00.714Z,318.20
2023-05-10T04:54:06.025Z,300.70
2023-05-10T04:55:02.827Z,345.30
2023-05-10T04:56:00.684Z,316.10
2023-05-10T04:57:07.990Z,407.30
2023-05-10T04:58:00.631Z,320.90
2023-05-10T04:59:00.615Z,326.40
2023-05-10T05:00:00.674Z,323.30
2023-05-10T05:01:00.933Z,275.80
2023-05-10T05:02:00.836Z,244.20
2023-05-10T05:03:00.702Z,258.20
2023-05-10T05:04:00.795Z,320.00
2023-05-10T05:05:00.772Z,381.30
2023-05-10T05:06:00.698Z,306.50
2023-05-10T05:07:00.578Z,333.20
2023-05-10T05:08:00.603Z,283.20
2023-05-10T05:09:00.572Z,277.60
2023-05-10T05:10:00.593Z,273.40
2023-05-10T05:11:00.590Z,293.30
2023-05-10T05:12:00.571Z,293.00
2023-05-10T05:13:00.625Z,283.50
2023-05-10T05:14:00.585Z,352.60
2023-05-10T05:15:00.528Z,444.70
2023-05-10T05:16:00.608Z,339.40
2023-05-10T05:17:00.602Z,375.60
2023-05-10T05:18:00.609Z,414.40
2023-05-10T05:19:00.524Z,429.10
2023-05-10T05:20:00.572Z,327.50
2023-05-10T05:21:00.504Z,284.60
2023-05-10T05:22:00.553Z,333.90
2023-05-10T05:23:00.512Z,396.00
2023-05-10T05:24:00.512Z,484.40
2023-05-10T05:25:00.486Z,347.60
2023-05-10T05:26:00.522Z,388.90
2023-05-10T05:27:00.484Z,382.20
2023-05-10T05:28:00.527Z,370.20
2023-05-10T05:29:00.409Z,313.80
2023-05-10T05:30:00.431Z,344.30
2023-05-10T05:31:00.478Z,387.50
2023-05-10T05:32:00.549Z,374.60
2023-05-10T05:33:00.500Z,356.10
2023-05-10T05:34:00.444Z,400.40
2023-05-10T05:35:00.385Z,382.00
2023-05-10T05:36:00.360Z,357.90
2023-05-10T05:37:00.391Z,392.50
2023-05-10T05:38:00.359Z,433.80
2023-05-10T05:39:00.650Z,439.00
2023-05-10T05:40:00.534Z,387.40
2023-05-10T05:41:00.400Z,389.70
2023-05-10T05:42:00.394Z,362.30
2023-05-10T05:43:00.304Z,350.20
2023-05-10T05:44:00.327Z,368.70
2023-05-10T05:45:00.329Z,380.80
2023-05-10T05:46:00.330Z,366.50
2023-05-10T05:47:00.315Z,357.40
2023-05-10T05:48:00.728Z,387.20
2023-05-10T05:49:00.255Z,369.00
2023-05-10T05:50:00.358Z,378.90
2023-05-10T05:51:07.276Z,362.60
2023-05-10T05:52:00.348Z,344.60
2023-05-10T05:53:00.249Z,323.90
2023-05-10T05:54:00.291Z,363.80
2023-05-10T05:55:00.302Z,353.70
2023-05-10T05:56:00.227Z,396.40
2023-05-10T05:57:01.201Z,402.60
2023-05-10T05:58:00.201Z,388.50
2023-05-10T05:59:00.169Z,382.00
2023-05-10T06:00:00.223Z,385.10
2023-05-10T06:01:00.311Z,396.50
2023-05-10T06:02:00.225Z,375.00
2023-05-10T06:03:00.393Z,336.80
2023-05-10T06:04:00.356Z,342.40
2023-05-10T06:05:00.176Z,355.10
2023-05-10T06:06:00.190Z,420.10
2023-05-10T06:07:00.166Z,408.40
2023-05-10T06:08:00.182Z,430.00
2023-05-10T06:09:00.373Z,382.10
2023-05-10T06:10:00.188Z,371.40
2023-05-10T06:11:00.159Z,359.60
2023-05-10T06:12:00.179Z,348.90
2023-05-10T06:13:00.185Z,362.10
2023-05-10T06:14:00.108Z,362.10
2023-05-10T06:15:00.113Z,382.90
2023-05-10T06:16:01.059Z,388.00
2023-05-10T06:17:00.259Z,357.10
2023-05-10T06:18:00.257Z,420.50
2023-05-10T06:19:00.074Z,423.40
2023-05-10T06:20:00.078Z,458.00
2023-05-10T06:21:00.072Z,442.80
2023-05-10T06:22:00.027Z,346.70
2023-05-10T06:23:00.069Z,347.60
2023-05-10T06:23:59.987Z,383.70
2023-05-10T06:25:00.047Z,422.30
2023-05-10T06:26:00.053Z,429.80
2023-05-10T06:27:00.005Z,396.40
2023-05-10T06:28:00.039Z,330.80
2023-05-10T06:28:59.994Z,342.60
2023-05-10T06:30:11.741Z,333.70
2023-05-10T06:31:02.079Z,378.90
2023-05-10T06:32:00.003Z,323.80
2023-05-10T06:32:59.968Z,336.50
2023-05-10T09:08:19.142Z,12.10
2023-05-10T09:09:18.886Z,13.90
2023-05-10T09:10:18.888Z,10.50
2023-05-10T09:11:20.136Z,10.80
2023-05-10T09:12:19.990Z,12.60
2023-05-10T09:13:20.141Z,12.10
2023-05-10T09:14:20.065Z,16.50
2023-05-10T09:15:20.007Z,27.00
2023-05-10T09:16:21.590Z,103.70
2023-05-10T09:17:20.914Z,180.50
2023-05-10T09:18:20.016Z,148.20
2023-05-10T09:19:19.980Z,229.50
2023-05-10T09:20:19.941Z,164.30
2023-05-10T09:21:19.942Z,139.20
2023-05-10T09:22:19.943Z,108.70
2023-05-10T09:23:19.949Z,102.10
2023-05-10T09:24:19.988Z,183.80
2023-05-10T09:25:20.154Z,137.10
2023-05-10T09:26:19.946Z,143.60
2023-05-10T09:27:19.865Z,122.40
2023-05-10T09:28:19.942Z,128.90
2023-05-10T09:29:20.081Z,205.70
2023-05-10T09:30:20.129Z,220.70
2023-05-10T09:31:20.044Z,148.60
2023-05-10T09:32:20.029Z,143.20
2023-05-10T09:33:19.916Z,170.40
2023-05-10T09:34:19.930Z,258.20
2023-05-10T09:35:20.017Z,213.80
2023-05-10T09:36:19.870Z,138.50
2023-05-10T09:37:20.132Z,156.10
2023-05-10T09:38:19.977Z,115.40
2023-05-10T09:39:20.015Z,176.50
2023-05-10T09:40:19.898Z,229.70
2023-05-10T09:41:19.893Z,139.60
2023-05-10T09:42:19.870Z,162.10
2023-05-10T09:43:19.807Z,263.20
2023-05-10T09:44:19.817Z,326.10
2023-05-10T09:45:19.933Z,313.50
2023-05-10T09:46:20.130Z,315.70
2023-05-10T09:47:25.474Z,269.90
2023-05-10T09:48:20.015Z,269.40
2023-05-10T09:49:26.049Z,250.00
2023-05-10T09:50:19.940Z,313.80
2023-05-10T09:51:19.676Z,310.50
2023-05-10T09:52:20.754Z,317.20
2023-05-10T09:53:19.701Z,264.80
2023-05-10T09:54:19.620Z,311.40
2023-05-10T09:55:19.696Z,293.20
2023-05-10T09:56:23.758Z,323.30
2023-05-10T09:57:20.681Z,297.20
2023-05-10T09:58:19.707Z,279.70
2023-05-10T09:59:19.605Z,260.10
2023-05-10T10:00:19.612Z,238.20
2023-05-10T10:01:19.780Z,219.20
2023-05-10T10:02:19.960Z,146.20
2023-05-10T10:03:19.692Z,251.90
2023-05-10T10:04:19.734Z,95.20
2023-05-10T10:05:19.644Z,184.80
2023-05-10T10:06:29.495Z,79.90
2023-05-10T10:07:22.007Z,101.30
2023-05-10T10:08:19.937Z,128.70
2023-05-10T10:09:20.244Z,92.20
2023-05-10T10:10:19.682Z,65.80
2023-05-10T10:11:19.812Z,63.20
2023-05-10T10:12:19.643Z,41.60
2023-05-10T10:13:19.821Z,45.70
2023-05-10T10:14:19.479Z,55.40
2023-05-10T10:15:19.644Z,130.90
2023-05-10T10:16:19.575Z,151.90
2023-05-10T10:17:19.480Z,248.80
2023-05-10T10:18:19.532Z,150.30
2023-05-10T10:19:19.451Z,84.60
2023-05-10T10:20:19.690Z,203.10
2023-05-10T10:21:19.513Z,100.00
2023-05-10T10:22:20.513Z,115.00
2023-05-10T10:23:19.547Z,135.80
2023-05-10T10:24:19.689Z,121.90
2023-05-10T10:25:19.806Z,189.00
2023-05-10T10:26:19.578Z,171.60
2023-05-10T10:27:19.528Z,126.30
2023-05-10T10:28:19.576Z,204.30
2023-05-10T10:29:19.642Z,135.60
2023-05-10T10:30:19.618Z,135.60
2023-05-10T10:31:19.918Z,139.20
2023-05-10T10:32:19.462Z,114.30
2023-05-10T10:33:27.691Z,117.90
2023-05-10T10:34:21.690Z,162.70
2023-05-10T10:35:19.459Z,227.50
2023-05-10T10:36:19.648Z,146.70
2023-05-10T10:37:19.388Z,121.40
2023-05-10T10:38:19.424Z,201.60
2023-05-10T10:39:19.572Z,173.80
2023-05-10T10:40:19.420Z,195.30
2023-05-10T10:41:19.487Z,196.60
2023-05-10T10:42:19.762Z,221.20
2023-05-10T10:43:19.405Z,194.30
2023-05-10T10:44:19.513Z,200.40
2023-05-10T10:45:19.978Z,201.10
2023-05-10T10:46:20.185Z,221.20
2023-05-10T10:47:19.333Z,266.40
2023-05-10T10:48:19.280Z,273.60
2023-05-10T10:49:19.408Z,282.70
2023-05-10T10:50:19.851Z,244.50
2023-05-10T10:51:19.262Z,220.40
2023-05-10T10:52:19.295Z,293.40
2023-05-10T10:53:19.370Z,184.00
2023-05-10T10:54:19.597Z,293.70
2023-05-10T10:55:19.619Z,305.10
2023-05-10T10:56:20.099Z,238.40
2023-05-10T10:57:19.314Z,316.20
2023-05-10T10:58:19.558Z,419.70
2023-05-10T10:59:19.307Z,312.50
2023-05-10T11:00:19.254Z,331.50
2023-05-10T11:01:19.648Z,196.70
2023-05-10T11:02:19.718Z,235.70
2023-05-10T11:03:19.285Z,332.30
2023-05-10T11:04:19.428Z,304.70
2023-05-10T11:05:19.432Z,347.60
2023-05-10T11:06:21.022Z,517.50
2023-05-10T11:07:19.541Z,605.70
2023-05-10T11:08:19.703Z,620.40
2023-05-10T11:09:19.907Z,614.50
2023-05-10T11:10:19.368Z,731.80
2023-05-10T11:11:19.972Z,525.30
2023-05-10T11:12:23.887Z,547.70
2023-05-10T11:13:19.809Z,576.50
2023-05-10T11:14:19.578Z,648.70
2023-05-10T11:15:19.276Z,628.90
2023-05-10T11:16:19.764Z,647.60
2023-05-10T11:17:19.866Z,726.00
2023-05-10T11:18:19.567Z,591.30
2023-05-10T11:19:19.705Z,495.00
2023-05-10T11:20:19.629Z,359.80
2023-05-10T11:21:19.817Z,397.90
2023-05-10T11:22:19.433Z,530.50
2023-05-10T11:23:19.137Z,664.80
2023-05-10T11:24:19.555Z,630.80
2023-05-10T11:25:19.290Z,651.80
2023-05-10T11:26:19.117Z,651.60
2023-05-10T11:27:19.215Z,701.80
2023-05-10T11:28:19.143Z,803.80
2023-05-10T11:29:19.193Z,783.40
2023-05-10T11:30:19.358Z,866.50
2023-05-10T11:31:19.326Z,699.60
2023-05-10T11:32:19.430Z,721.70
2023-05-10T11:33:19.220Z,715.70
2023-05-10T11:34:19.245Z,735.10
2023-05-10T11:35:19.312Z,664.10
2023-05-10T11:36:19.096Z,696.40
2023-05-10T11:37:19.190Z,777.30
2023-05-10T11:38:19.039Z,765.20
2023-05-10T11:39:19.162Z,404.80
2023-05-10T11:40:19.123Z,474.40
2023-05-10T11:41:18.893Z,540.70
2023-05-10T11:42:18.957Z,616.50
2023-05-10T11:43:18.869Z,619.10
2023-05-10T11:44:19.024Z,643.90
2023-05-10T11:45:18.889Z,505.30
2023-05-10T11:46:18.934Z,804.00
2023-05-10T11:47:18.961Z,815.30
2023-05-10T11:48:18.955Z,841.10
2023-05-10T11:49:18.939Z,792.60
2023-05-10T11:50:19.422Z,716.90
2023-05-10T11:51:18.988Z,754.90
2023-05-10T11:52:19.132Z,815.50
2023-05-10T11:53:18.905Z,800.40
2023-05-10T11:54:18.919Z,767.10
2023-05-10T11:55:18.938Z,827.80
2023-05-10T11:56:18.852Z,749.60
2023-05-10T11:57:18.864Z,865.30
2023-05-10T11:58:18.840Z,928.10
2023-05-10T11:59:18.955Z,901.80
2023-05-10T12:00:19.176Z,853.20
2023-05-10T12:01:18.991Z,820.00
2023-05-10T12:02:19.088Z,936.00
2023-05-10T12:03:19.299Z,955.40
2023-05-10T12:04:19.201Z,868.70
2023-05-10T12:05:18.883Z,597.90
2023-05-10T12:06:18.886Z,581.10
2023-05-10T12:07:18.842Z,594.70
2023-05-10T12:08:18.769Z,475.40
2023-05-10T12:09:23.031Z,286.90
2023-05-10T12:10:20.117Z,250.20
2023-05-10T12:11:18.976Z,312.30
2023-05-10T12:12:18.822Z,268.00
2023-05-10T12:13:18.683Z,304.30
2023-05-10T12:14:18.730Z,294.80
2023-05-10T12:15:18.702Z,489.70
2023-05-10T12:16:18.747Z,498.50
2023-05-10T12:17:18.730Z,334.70
2023-05-10T12:18:18.809Z,418.50
2023-05-10T12:19:18.713Z,416.90
2023-05-10T12:20:19.310Z,350.90
2023-05-10T12:21:18.675Z,394.50
2023-05-10T12:22:19.032Z,292.30
2023-05-10T12:23:18.726Z,313.60
2023-05-10T12:24:18.980Z,345.00
2023-05-10T12:25:18.833Z,383.40
2023-05-10T12:26:18.708Z,259.30
2023-05-10T12:27:18.794Z,309.60
2023-05-10T12:28:19.304Z,252.70
2023-05-10T12:29:19.027Z,238.50
2023-05-10T12:30:18.943Z,293.40
2023-05-10T12:31:18.994Z,296.70
2023-05-10T12:32:19.085Z,260.80
2023-05-10T12:33:18.772Z,228.80
2023-05-10T12:34:18.647Z,219.20
2023-05-10T12:35:18.657Z,225.20
2023-05-10T12:36:18.797Z,225.10
2023-05-10T12:37:20.337Z,267.80
2023-05-10T12:38:18.952Z,224.30
2023-05-10T12:39:18.672Z,225.60
2023-05-10T12:40:19.351Z,311.90
2023-05-10T12:41:18.647Z,265.80
2023-05-10T12:42:18.609Z,266.40
2023-05-10T12:43:19.032Z,271.00
2023-05-10T12:44:18.644Z,307.10
2023-05-10T12:45:18.648Z,316.30
2023-05-10T12:46:18.602Z,279.00
2023-05-10T12:47:18.817Z,262.40
2023-05-10T12:48:19.085Z,272.20
2023-05-10T12:49:18.506Z,296.40
2023-05-10T12:50:18.856Z,312.60
2023-05-10T12:51:18.554Z,313.60
2023-05-10T12:52:18.587Z,353.90
2023-05-10T12:53:18.683Z,421.70
2023-05-10T12:54:18.718Z,400.30
2023-05-10T12:55:18.826Z,409.10
2023-05-10T12:56:18.584Z,465.80
2023-05-10T12:57:18.581Z,395.30
2023-05-10T12:58:31.908Z,428.40
2023-05-10T12:59:20.715Z,466.30
2023-05-10T13:00:18.811Z,388.40
2023-05-10T13:01:19.188Z,469.40
2023-05-10T13:02:18.330Z,416.30
2023-05-10T13:03:18.416Z,388.20
2023-05-10T13:04:18.389Z,396.70
2023-05-10T13:05:18.302Z,424.10
2023-05-10T13:06:18.401Z,428.90
2023-05-10T13:07:19.063Z,398.00
2023-05-10T13:08:19.186Z,437.90
2023-05-10T13:09:18.786Z,455.20
2023-05-10T13:10:19.028Z,403.80
2023-05-10T13:11:18.541Z,456.20
2023-05-10T13:12:18.258Z,469.10
2023-05-10T13:13:18.323Z,493.60
2023-05-10T13:14:18.383Z,460.60
2023-05-10T13:15:18.985Z,459.50
2023-05-10T13:16:18.492Z,462.40
2023-05-10T13:17:19.015Z,449.30
2023-05-10T13:18:18.436Z,434.50
2023-05-10T13:19:18.500Z,437.50
2023-05-10T13:20:19.115Z,451.80
2023-05-10T13:21:18.175Z,403.80
2023-05-10T13:22:25.544Z,418.40
2023-05-10T13:23:20.295Z,404.70
2023-05-10T13:24:18.185Z,359.10
2023-05-10T13:25:18.472Z,374.20
2023-05-10T13:26:18.313Z,453.50
2023-05-10T13:27:18.312Z,480.40
2023-05-10T13:28:18.281Z,459.80
2023-05-10T13:29:18.259Z,472.00
2023-05-10T13:30:18.403Z,501.00
2023-05-10T13:31:18.770Z,510.10
2023-05-10T13:32:18.756Z,486.50
2023-05-10T13:33:18.712Z,454.90
2023-05-10T13:34:18.312Z,469.40
2023-05-10T13:35:18.266Z,485.20
2023-05-10T13:36:18.342Z,524.70
2023-05-10T13:37:18.169Z,535.70
2023-05-10T13:38:19.440Z,482.30
2023-05-10T13:39:18.295Z,533.30
2023-05-10T13:40:18.397Z,548.20
2023-05-10T13:41:18.132Z,581.10
2023-05-10T13:42:18.468Z,495.50
2023-05-10T13:43:18.656Z,534.10
2023-05-10T13:44:18.732Z,506.00
2023-05-10T13:45:18.424Z,526.60
2023-05-10T13:46:18.460Z,513.60
2023-05-10T13:47:17.988Z,548.30
2023-05-10T13:48:18.222Z,625.90
2023-05-10T13:49:18.023Z,651.70
2023-05-10T13:50:18.599Z,639.30
2023-05-10T13:51:18.300Z,652.90
2023-05-10T13:52:18.695Z,694.00
2023-05-10T13:53:18.617Z,657.40
2023-05-10T13:54:18.097Z,617.90
2023-05-10T13:55:18.522Z,587.60
2023-05-10T13:56:18.127Z,689.30
2023-05-10T13:57:18.604Z,656.90
2023-05-10T13:58:18.269Z,644.60
2023-05-10T13:59:18.314Z,708.70
2023-05-10T14:00:18.234Z,901.80
2023-05-10T14:01:18.770Z,890.40
2023-05-10T14:02:18.041Z,902.00
2023-05-10T14:03:18.092Z,897.80
2023-05-10T14:04:18.005Z,837.70
2023-05-10T14:06:17.969Z,807.60
2023-05-10T14:07:17.943Z,869.80
2023-05-10T14:08:17.951Z,877.30
2023-05-10T14:09:18.064Z,905.40
2023-05-10T14:10:18.010Z,820.90
2023-05-10T14:11:17.856Z,790.50
2023-05-10T14:12:17.898Z,918.20
2023-05-10T14:13:18.030Z,772.10
2023-05-10T14:14:17.964Z,936.90
2023-05-10T14:15:18.366Z,848.90
2023-05-10T14:16:17.950Z,849.40
2023-05-10T14:17:17.948Z,675.00
2023-05-10T14:18:17.924Z,642.60
2023-05-10T14:19:17.981Z,589.80
2023-05-10T14:20:17.953Z,546.00
2023-05-10T14:21:19.160Z,650.30
2023-05-10T14:22:18.258Z,610.10
2023-05-10T14:23:17.933Z,545.30
2023-05-10T14:24:17.986Z,571.80
2023-05-10T14:25:18.092Z,401.40
2023-05-10T14:26:17.856Z,393.10
2023-05-10T14:27:17.876Z,484.10
2023-05-10T14:28:18.154Z,412.20
2023-05-10T14:29:17.873Z,458.80
2023-05-10T14:30:17.808Z,560.10
2023-05-10T14:31:18.179Z,498.60
2023-05-10T14:32:17.936Z,760.90
2023-05-10T14:33:18.501Z,798.70
2023-05-10T14:34:18.327Z,869.60
2023-05-10T14:35:19.722Z,857.70
2023-05-10T14:36:18.912Z,412.10
2023-05-10T14:37:18.068Z,478.50
2023-05-10T14:38:18.524Z,459.80
2023-05-10T14:39:17.916Z,417.70
2023-05-10T14:40:18.143Z,457.40
2023-05-10T14:41:17.981Z,297.10
2023-05-10T14:42:17.895Z,399.40
2023-05-10T14:43:17.913Z,603.90
2023-05-10T14:44:18.608Z,606.90
2023-05-10T14:45:22.874Z,656.30
2023-05-10T14:46:18.115Z,454.30
2023-05-10T14:47:17.941Z,380.50
2023-05-10T14:48:18.257Z,527.70
2023-05-10T14:49:17.911Z,486.60
2023-05-10T14:50:34.703Z,369.80
2023-05-10T14:51:20.199Z,381.80
2023-05-10T14:52:18.045Z,445.70
2023-05-10T14:53:22.429Z,437.70
2023-05-10T14:54:18.773Z,478.70
2023-05-10T14:55:18.650Z,391.10
2023-05-10T14:56:17.852Z,416.90
2023-05-10T14:57:18.293Z,349.00
2023-05-10T14:58:18.186Z,424.40
2023-05-10T14:59:18.351Z,383.10
2023-05-10T15:00:18.308Z,374.00
2023-05-10T15:01:18.534Z,309.10
2023-05-10T15:02:18.363Z,350.30
2023-05-10T15:03:18.241Z,379.90
2023-05-10T15:04:25.443Z,411.70